sensor_id;sensor_type;location;lat;lon;timestamp;P1;durP1;ratioP1;P2;durP2;ratioP2
57947;SDS011;43754;56.992;24.292;2022-11-09T00:00:37;18.98;;;9.05;;
57947;SDS011;43754;56.992;24.292;2022-11-09T00:03:10;23.92;;;10.15;;
57947;SDS011;43754;56.992;24.292;2022-11-09T00:05:43;20.70;;;9.70;;
57947;SDS011;43754;56.992;24.292;2022-11-09T00:08:25;14.48;;;8.80;;
57947;SDS011;43754;56.992;24.292;2022-11-09T00:11:01;17.15;;;8.82;;
57947;SDS011;43754;56.992;24.292;2022-11-09T00:13:34;21.38;;;9.70;;
57947;SDS011;43754;56.992;24.292;2022-11-09T00:16:09;19.45;;;10.35;;
57947;SDS011;43754;56.992;24.292;2022-11-09T00:18:42;26.70;;;11.23;;
57947;SDS011;43754;56.992;24.292;2022-11-09T00:21:18;21.13;;;10.27;;
57947;SDS011;43754;56.992;24.292;2022-11-09T00:23:51;24.42;;;10.98;;
57947;SDS011;43754;56.992;24.292;2022-11-09T00:26:23;28.35;;;9.85;;
57947;SDS011;43754;56.992;24.292;2022-11-09T00:28:56;17.45;;;10.10;;
57947;SDS011;43754;56.992;24.292;2022-11-09T00:31:30;19.40;;;10.60;;
57947;SDS011;43754;56.992;24.292;2022-11-09T00:34:02;19.92;;;8.68;;
57947;SDS011;43754;56.992;24.292;2022-11-09T00:36:34;16.33;;;9.57;;
57947;SDS011;43754;56.992;24.292;2022-11-09T00:39:07;21.35;;;10.88;;
57947;SDS011;43754;56.992;24.292;2022-11-09T00:41:39;23.08;;;11.85;;
57947;SDS011;43754;56.992;24.292;2022-11-09T00:44:11;22.63;;;10.75;;
57947;SDS011;43754;56.992;24.292;2022-11-09T00:46:44;23.30;;;11.02;;
57947;SDS011;43754;56.992;24.292;2022-11-09T00:49:16;26.20;;;11.48;;
57947;SDS011;43754;56.992;24.292;2022-11-09T00:51:48;19.92;;;9.75;;
57947;SDS011;43754;56.992;24.292;2022-11-09T00:54:20;20.15;;;9.88;;
57947;SDS011;43754;56.992;24.292;2022-11-09T00:56:52;28.25;;;11.63;;
57947;SDS011;43754;56.992;24.292;2022-11-09T00:59:24;17.92;;;9.82;;
57947;SDS011;43754;56.992;24.292;2022-11-09T01:01:57;17.73;;;10.43;;
57947;SDS011;43754;56.992;24.292;2022-11-09T01:04:29;21.25;;;9.38;;
57947;SDS011;43754;56.992;24.292;2022-11-09T01:07:03;22.52;;;10.38;;
57947;SDS011;43754;56.992;24.292;2022-11-09T01:09:37;19.60;;;9.93;;
57947;SDS011;43754;56.992;24.292;2022-11-09T01:12:09;26.50;;;10.93;;
57947;SDS011;43754;56.992;24.292;2022-11-09T01:14:41;21.67;;;11.05;;
57947;SDS011;43754;56.992;24.292;2022-11-09T01:17:15;19.55;;;10.95;;
57947;SDS011;43754;56.992;24.292;2022-11-09T01:19:47;21.58;;;10.45;;
57947;SDS011;43754;56.992;24.292;2022-11-09T01:22:19;20.10;;;11.32;;
57947;SDS011;43754;56.992;24.292;2022-11-09T01:24:51;22.45;;;10.25;;
57947;SDS011;43754;56.992;24.292;2022-11-09T01:27:23;21.30;;;10.90;;
57947;SDS011;43754;56.992;24.292;2022-11-09T01:29:55;20.10;;;10.05;;
57947;SDS011;43754;56.992;24.292;2022-11-09T01:32:31;20.73;;;10.73;;
57947;SDS011;43754;56.992;24.292;2022-11-09T01:35:03;16.65;;;10.52;;
57947;SDS011;43754;56.992;24.292;2022-11-09T01:37:36;23.42;;;10.77;;
57947;SDS011;43754;56.992;24.292;2022-11-09T01:40:09;19.23;;;10.18;;
57947;SDS011;43754;56.992;24.292;2022-11-09T01:42:42;22.83;;;10.95;;
57947;SDS011;43754;56.992;24.292;2022-11-09T01:45:24;19.42;;;10.15;;
57947;SDS011;43754;56.992;24.292;2022-11-09T01:48:00;21.88;;;11.82;;
57947;SDS011;43754;56.992;24.292;2022-11-09T01:50:38;22.48;;;12.10;;
57947;SDS011;43754;56.992;24.292;2022-11-09T01:53:15;18.77;;;10.40;;
57947;SDS011;43754;56.992;24.292;2022-11-09T01:55:51;23.80;;;11.68;;
57947;SDS011;43754;56.992;24.292;2022-11-09T01:58:26;21.63;;;12.45;;
57947;SDS011;43754;56.992;24.292;2022-11-09T02:01:02;20.35;;;12.32;;
57947;SDS011;43754;56.992;24.292;2022-11-09T02:03:39;25.33;;;12.95;;
57947;SDS011;43754;56.992;24.292;2022-11-09T02:06:15;25.65;;;12.23;;
57947;SDS011;43754;56.992;24.292;2022-11-09T02:08:50;25.83;;;12.40;;
57947;SDS011;43754;56.992;24.292;2022-11-09T02:11:26;22.67;;;11.65;;
57947;SDS011;43754;56.992;24.292;2022-11-09T02:14:02;23.35;;;12.75;;
57947;SDS011;43754;56.992;24.292;2022-11-09T02:16:36;20.13;;;11.43;;
57947;SDS011;43754;56.992;24.292;2022-11-09T02:19:10;20.60;;;12.65;;
57947;SDS011;43754;56.992;24.292;2022-11-09T02:21:44;30.23;;;14.05;;
57947;SDS011;43754;56.992;24.292;2022-11-09T02:24:16;26.67;;;14.10;;
57947;SDS011;43754;56.992;24.292;2022-11-09T02:26:49;19.90;;;12.88;;
57947;SDS011;43754;56.992;24.292;2022-11-09T02:29:24;28.77;;;14.13;;
57947;SDS011;43754;56.992;24.292;2022-11-09T02:32:00;19.95;;;12.90;;
57947;SDS011;43754;56.992;24.292;2022-11-09T02:34:37;24.27;;;13.43;;
57947;SDS011;43754;56.992;24.292;2022-11-09T02:37:11;28.23;;;16.20;;
57947;SDS011;43754;56.992;24.292;2022-11-09T02:39:43;22.77;;;13.80;;
57947;SDS011;43754;56.992;24.292;2022-11-09T02:42:15;19.80;;;13.13;;
57947;SDS011;43754;56.992;24.292;2022-11-09T02:44:55;19.27;;;13.85;;
57947;SDS011;43754;56.992;24.292;2022-11-09T02:47:29;23.40;;;13.20;;
57947;SDS011;43754;56.992;24.292;2022-11-09T02:50:01;21.27;;;12.68;;
57947;SDS011;43754;56.992;24.292;2022-11-09T02:52:35;25.42;;;14.18;;
57947;SDS011;43754;56.992;24.292;2022-11-09T02:55:07;23.23;;;14.35;;
57947;SDS011;43754;56.992;24.292;2022-11-09T02:57:40;26.52;;;13.60;;
57947;SDS011;43754;56.992;24.292;2022-11-09T03:00:14;22.23;;;12.98;;
57947;SDS011;43754;56.992;24.292;2022-11-09T03:02:47;28.77;;;14.93;;
57947;SDS011;43754;56.992;24.292;2022-11-09T03:05:20;24.33;;;14.32;;
57947;SDS011;43754;56.992;24.292;2022-11-09T03:07:53;30.45;;;14.55;;
57947;SDS011;43754;56.992;24.292;2022-11-09T03:10:26;26.60;;;14.15;;
57947;SDS011;43754;56.992;24.292;2022-11-09T03:12:59;23.13;;;13.73;;
57947;SDS011;43754;56.992;24.292;2022-11-09T03:15:31;23.40;;;13.63;;
57947;SDS011;43754;56.992;24.292;2022-11-09T03:18:03;24.73;;;15.38;;
57947;SDS011;43754;56.992;24.292;2022-11-09T03:20:35;18.63;;;13.32;;
57947;SDS011;43754;56.992;24.292;2022-11-09T03:23:08;25.25;;;14.60;;
57947;SDS011;43754;56.992;24.292;2022-11-09T03:25:42;22.50;;;13.32;;
57947;SDS011;43754;56.992;24.292;2022-11-09T03:28:15;22.33;;;14.02;;
57947;SDS011;43754;56.992;24.292;2022-11-09T03:30:48;23.98;;;14.40;;
57947;SDS011;43754;56.992;24.292;2022-11-09T03:33:20;19.35;;;13.50;;
57947;SDS011;43754;56.992;24.292;2022-11-09T03:35:52;24.85;;;14.05;;
57947;SDS011;43754;56.992;24.292;2022-11-09T03:38:26;24.30;;;15.00;;
57947;SDS011;43754;56.992;24.292;2022-11-09T03:40:59;24.67;;;15.25;;
57947;SDS011;43754;56.992;24.292;2022-11-09T03:43:33;18.85;;;12.90;;
57947;SDS011;43754;56.992;24.292;2022-11-09T03:46:05;26.30;;;15.07;;
57947;SDS011;43754;56.992;24.292;2022-11-09T03:48:37;26.10;;;15.55;;
57947;SDS011;43754;56.992;24.292;2022-11-09T03:51:09;22.48;;;13.30;;
57947;SDS011;43754;56.992;24.292;2022-11-09T03:53:42;26.00;;;14.32;;
57947;SDS011;43754;56.992;24.292;2022-11-09T03:56:14;20.80;;;12.55;;
57947;SDS011;43754;56.992;24.292;2022-11-09T03:58:46;26.58;;;13.63;;
57947;SDS011;43754;56.992;24.292;2022-11-09T04:01:18;28.23;;;13.98;;
57947;SDS011;43754;56.992;24.292;2022-11-09T04:03:50;22.50;;;12.55;;
57947;SDS011;43754;56.992;24.292;2022-11-09T04:06:22;20.33;;;13.25;;
57947;SDS011;43754;56.992;24.292;2022-11-09T04:08:55;25.48;;;15.20;;
57947;SDS011;43754;56.992;24.292;2022-11-09T04:11:27;21.35;;;13.10;;
57947;SDS011;43754;56.992;24.292;2022-11-09T04:13:59;23.67;;;12.98;;
57947;SDS011;43754;56.992;24.292;2022-11-09T04:16:31;21.58;;;13.77;;
57947;SDS011;43754;56.992;24.292;2022-11-09T04:19:03;20.83;;;13.15;;
57947;SDS011;43754;56.992;24.292;2022-11-09T04:21:35;32.40;;;14.93;;
57947;SDS011;43754;56.992;24.292;2022-11-09T04:24:09;26.17;;;15.38;;
57947;SDS011;43754;56.992;24.292;2022-11-09T04:26:41;29.13;;;16.02;;
57947;SDS011;43754;56.992;24.292;2022-11-09T04:29:13;26.45;;;15.45;;
57947;SDS011;43754;56.992;24.292;2022-11-09T04:31:46;22.45;;;13.88;;
57947;SDS011;43754;56.992;24.292;2022-11-09T04:34:19;25.30;;;14.05;;
57947;SDS011;43754;56.992;24.292;2022-11-09T04:36:51;25.45;;;15.57;;
57947;SDS011;43754;56.992;24.292;2022-11-09T04:39:24;24.58;;;13.70;;
57947;SDS011;43754;56.992;24.292;2022-11-09T04:41:56;22.65;;;14.98;;
57947;SDS011;43754;56.992;24.292;2022-11-09T04:44:28;24.70;;;16.27;;
57947;SDS011;43754;56.992;24.292;2022-11-09T04:47:00;25.70;;;15.45;;
57947;SDS011;43754;56.992;24.292;2022-11-09T04:49:32;22.88;;;14.13;;
57947;SDS011;43754;56.992;24.292;2022-11-09T04:52:04;24.30;;;15.32;;
57947;SDS011;43754;56.992;24.292;2022-11-09T04:54:37;26.63;;;15.18;;
57947;SDS011;43754;56.992;24.292;2022-11-09T04:57:09;24.70;;;15.52;;
57947;SDS011;43754;56.992;24.292;2022-11-09T04:59:41;27.80;;;15.82;;
57947;SDS011;43754;56.992;24.292;2022-11-09T05:02:13;21.83;;;14.13;;
57947;SDS011;43754;56.992;24.292;2022-11-09T05:04:45;20.80;;;14.52;;
57947;SDS011;43754;56.992;24.292;2022-11-09T05:07:17;22.27;;;14.73;;
57947;SDS011;43754;56.992;24.292;2022-11-09T05:09:50;22.35;;;14.05;;
57947;SDS011;43754;56.992;24.292;2022-11-09T05:12:22;20.27;;;13.65;;
57947;SDS011;43754;56.992;24.292;2022-11-09T05:14:54;20.10;;;13.98;;
57947;SDS011;43754;56.992;24.292;2022-11-09T05:17:26;18.45;;;12.95;;
57947;SDS011;43754;56.992;24.292;2022-11-09T05:19:58;25.85;;;13.95;;
57947;SDS011;43754;56.992;24.292;2022-11-09T05:22:30;22.42;;;13.60;;
57947;SDS011;43754;56.992;24.292;2022-11-09T05:27:54;21.83;;;14.15;;
57947;SDS011;43754;56.992;24.292;2022-11-09T05:30:25;21.48;;;14.20;;
57947;SDS011;43754;56.992;24.292;2022-11-09T05:32:57;22.10;;;14.35;;
57947;SDS011;43754;56.992;24.292;2022-11-09T05:35:30;19.08;;;12.73;;
57947;SDS011;43754;56.992;24.292;2022-11-09T05:38:03;21.83;;;14.55;;
57947;SDS011;43754;56.992;24.292;2022-11-09T05:40:36;27.05;;;14.38;;
57947;SDS011;43754;56.992;24.292;2022-11-09T05:43:08;20.67;;;12.23;;
57947;SDS011;43754;56.992;24.292;2022-11-09T05:45:40;21.33;;;12.98;;
57947;SDS011;43754;56.992;24.292;2022-11-09T05:48:15;21.23;;;13.27;;
57947;SDS011;43754;56.992;24.292;2022-11-09T05:50:48;20.13;;;13.35;;
57947;SDS011;43754;56.992;24.292;2022-11-09T05:53:29;20.48;;;12.77;;
57947;SDS011;43754;56.992;24.292;2022-11-09T05:56:04;22.73;;;13.25;;
57947;SDS011;43754;56.992;24.292;2022-11-09T05:58:38;20.55;;;14.15;;
57947;SDS011;43754;56.992;24.292;2022-11-09T06:01:12;21.42;;;12.43;;
57947;SDS011;43754;56.992;24.292;2022-11-09T06:03:46;18.65;;;12.20;;
57947;SDS011;43754;56.992;24.292;2022-11-09T06:06:18;20.67;;;12.50;;
57947;SDS011;43754;56.992;24.292;2022-11-09T06:08:50;18.02;;;12.93;;
57947;SDS011;43754;56.992;24.292;2022-11-09T06:11:23;17.45;;;12.48;;
57947;SDS011;43754;56.992;24.292;2022-11-09T06:13:55;19.48;;;12.02;;
57947;SDS011;43754;56.992;24.292;2022-11-09T06:16:27;19.27;;;13.13;;
57947;SDS011;43754;56.992;24.292;2022-11-09T06:18:59;18.38;;;12.52;;
57947;SDS011;43754;56.992;24.292;2022-11-09T06:21:32;21.98;;;15.05;;
57947;SDS011;43754;56.992;24.292;2022-11-09T06:24:04;24.08;;;12.57;;
57947;SDS011;43754;56.992;24.292;2022-11-09T06:26:38;22.17;;;14.20;;
57947;SDS011;43754;56.992;24.292;2022-11-09T06:29:09;20.45;;;12.60;;
57947;SDS011;43754;56.992;24.292;2022-11-09T06:31:41;19.58;;;12.57;;
57947;SDS011;43754;56.992;24.292;2022-11-09T06:34:13;17.35;;;12.30;;
57947;SDS011;43754;56.992;24.292;2022-11-09T06:36:46;20.00;;;12.82;;
57947;SDS011;43754;56.992;24.292;2022-11-09T06:39:17;21.95;;;12.68;;
57947;SDS011;43754;56.992;24.292;2022-11-09T06:41:51;20.52;;;12.70;;
57947;SDS011;43754;56.992;24.292;2022-11-09T06:44:23;19.90;;;12.45;;
57947;SDS011;43754;56.992;24.292;2022-11-09T06:46:55;19.73;;;13.07;;
57947;SDS011;43754;56.992;24.292;2022-11-09T06:49:27;22.95;;;13.15;;
57947;SDS011;43754;56.992;24.292;2022-11-09T06:51:59;18.30;;;11.18;;
57947;SDS011;43754;56.992;24.292;2022-11-09T06:54:31;21.80;;;12.90;;
57947;SDS011;43754;56.992;24.292;2022-11-09T06:57:05;17.70;;;11.40;;
57947;SDS011;43754;56.992;24.292;2022-11-09T06:59:37;15.93;;;11.15;;
57947;SDS011;43754;56.992;24.292;2022-11-09T07:02:10;20.27;;;11.55;;
57947;SDS011;43754;56.992;24.292;2022-11-09T07:04:45;19.40;;;10.80;;
57947;SDS011;43754;56.992;24.292;2022-11-09T07:07:17;17.38;;;12.15;;
57947;SDS011;43754;56.992;24.292;2022-11-09T07:09:55;18.92;;;11.30;;
57947;SDS011;43754;56.992;24.292;2022-11-09T07:12:29;21.08;;;12.77;;
57947;SDS011;43754;56.992;24.292;2022-11-09T07:15:02;20.00;;;11.90;;
57947;SDS011;43754;56.992;24.292;2022-11-09T07:17:35;20.33;;;11.73;;
57947;SDS011;43754;56.992;24.292;2022-11-09T07:20:10;15.75;;;10.65;;
57947;SDS011;43754;56.992;24.292;2022-11-09T07:22:42;16.73;;;11.75;;
57947;SDS011;43754;56.992;24.292;2022-11-09T07:25:14;16.85;;;10.45;;
57947;SDS011;43754;56.992;24.292;2022-11-09T07:27:48;20.40;;;11.73;;
57947;SDS011;43754;56.992;24.292;2022-11-09T07:30:20;19.60;;;10.95;;
57947;SDS011;43754;56.992;24.292;2022-11-09T07:32:52;17.17;;;11.02;;
57947;SDS011;43754;56.992;24.292;2022-11-09T07:35:40;18.70;;;10.05;;
57947;SDS011;43754;56.992;24.292;2022-11-09T07:38:12;17.73;;;9.40;;
57947;SDS011;43754;56.992;24.292;2022-11-09T07:40:46;19.92;;;10.65;;
57947;SDS011;43754;56.992;24.292;2022-11-09T07:43:19;23.27;;;13.35;;
57947;SDS011;43754;56.992;24.292;2022-11-09T07:45:56;18.48;;;9.57;;
57947;SDS011;43754;56.992;24.292;2022-11-09T07:48:28;15.20;;;10.55;;
57947;SDS011;43754;56.992;24.292;2022-11-09T07:51:00;20.02;;;10.63;;
57947;SDS011;43754;56.992;24.292;2022-11-09T07:53:32;14.80;;;9.35;;
57947;SDS011;43754;56.992;24.292;2022-11-09T07:56:04;17.33;;;9.23;;
57947;SDS011;43754;56.992;24.292;2022-11-09T07:58:38;18.30;;;10.88;;
57947;SDS011;43754;56.992;24.292;2022-11-09T08:01:10;16.02;;;9.73;;
57947;SDS011;43754;56.992;24.292;2022-11-09T08:03:42;16.08;;;9.70;;
57947;SDS011;43754;56.992;24.292;2022-11-09T08:06:14;12.93;;;8.73;;
57947;SDS011;43754;56.992;24.292;2022-11-09T08:08:49;17.10;;;9.45;;
57947;SDS011;43754;56.992;24.292;2022-11-09T08:11:21;15.90;;;9.35;;
57947;SDS011;43754;56.992;24.292;2022-11-09T08:13:54;13.30;;;8.43;;
57947;SDS011;43754;56.992;24.292;2022-11-09T08:16:27;16.00;;;8.45;;
57947;SDS011;43754;56.992;24.292;2022-11-09T08:19:05;16.48;;;8.75;;
57947;SDS011;43754;56.992;24.292;2022-11-09T08:21:39;13.45;;;9.02;;
57947;SDS011;43754;56.992;24.292;2022-11-09T08:24:11;17.88;;;9.13;;
57947;SDS011;43754;56.992;24.292;2022-11-09T08:26:43;16.85;;;8.20;;
57947;SDS011;43754;56.992;24.292;2022-11-09T08:29:16;15.10;;;8.77;;
57947;SDS011;43754;56.992;24.292;2022-11-09T08:31:48;17.38;;;8.75;;
57947;SDS011;43754;56.992;24.292;2022-11-09T08:34:21;18.88;;;9.40;;
57947;SDS011;43754;56.992;24.292;2022-11-09T08:36:53;15.60;;;8.55;;
57947;SDS011;43754;56.992;24.292;2022-11-09T08:39:25;12.18;;;8.13;;
57947;SDS011;43754;56.992;24.292;2022-11-09T08:41:57;13.02;;;8.82;;
57947;SDS011;43754;56.992;24.292;2022-11-09T08:44:30;16.40;;;9.40;;
57947;SDS011;43754;56.992;24.292;2022-11-09T08:47:02;14.95;;;8.55;;
57947;SDS011;43754;56.992;24.292;2022-11-09T08:49:34;13.85;;;8.75;;
57947;SDS011;43754;56.992;24.292;2022-11-09T08:52:06;11.73;;;7.75;;
57947;SDS011;43754;56.992;24.292;2022-11-09T08:54:38;13.90;;;7.57;;
57947;SDS011;43754;56.992;24.292;2022-11-09T08:57:10;11.18;;;8.15;;
57947;SDS011;43754;56.992;24.292;2022-11-09T08:59:44;14.18;;;8.48;;
57947;SDS011;43754;56.992;24.292;2022-11-09T09:02:16;13.93;;;7.72;;
57947;SDS011;43754;56.992;24.292;2022-11-09T09:04:48;15.57;;;8.25;;
57947;SDS011;43754;56.992;24.292;2022-11-09T09:07:20;13.02;;;7.40;;
57947;SDS011;43754;56.992;24.292;2022-11-09T09:09:52;12.85;;;7.68;;
57947;SDS011;43754;56.992;24.292;2022-11-09T09:12:24;14.63;;;7.55;;
57947;SDS011;43754;56.992;24.292;2022-11-09T09:14:58;13.65;;;6.95;;
57947;SDS011;43754;56.992;24.292;2022-11-09T09:17:30;12.75;;;6.75;;
57947;SDS011;43754;56.992;24.292;2022-11-09T09:20:02;10.88;;;7.47;;
57947;SDS011;43754;56.992;24.292;2022-11-09T09:22:35;11.65;;;7.97;;
57947;SDS011;43754;56.992;24.292;2022-11-09T09:25:07;18.45;;;9.50;;
57947;SDS011;43754;56.992;24.292;2022-11-09T09:27:39;17.25;;;10.02;;
57947;SDS011;43754;56.992;24.292;2022-11-09T09:30:15;20.05;;;8.57;;
57947;SDS011;43754;56.992;24.292;2022-11-09T09:32:48;20.85;;;8.93;;
57947;SDS011;43754;56.992;24.292;2022-11-09T09:35:20;11.80;;;7.68;;
57947;SDS011;43754;56.992;24.292;2022-11-09T09:37:52;15.43;;;7.85;;
57947;SDS011;43754;56.992;24.292;2022-11-09T09:40:25;13.80;;;7.22;;
57947;SDS011;43754;56.992;24.292;2022-11-09T09:43:02;10.98;;;6.75;;
57947;SDS011;43754;56.992;24.292;2022-11-09T09:45:35;14.02;;;7.53;;
57947;SDS011;43754;56.992;24.292;2022-11-09T09:48:23;13.48;;;6.85;;
57947;SDS011;43754;56.992;24.292;2022-11-09T09:51:10;13.05;;;7.35;;
57947;SDS011;43754;56.992;24.292;2022-11-09T09:53:48;11.75;;;6.90;;
57947;SDS011;43754;56.992;24.292;2022-11-09T09:56:25;10.63;;;6.60;;
57947;SDS011;43754;56.992;24.292;2022-11-09T09:59:02;14.00;;;6.90;;
57947;SDS011;43754;56.992;24.292;2022-11-09T10:04:17;12.35;;;8.00;;
57947;SDS011;43754;56.992;24.292;2022-11-09T10:06:54;16.08;;;7.40;;
57947;SDS011;43754;56.992;24.292;2022-11-09T10:09:38;14.30;;;8.00;;
57947;SDS011;43754;56.992;24.292;2022-11-09T10:12:24;12.60;;;7.35;;
57947;SDS011;43754;56.992;24.292;2022-11-09T10:17:53;11.80;;;7.28;;
57947;SDS011;43754;56.992;24.292;2022-11-09T10:20:41;13.27;;;7.80;;
57947;SDS011;43754;56.992;24.292;2022-11-09T10:23:38;11.90;;;7.00;;
57947;SDS011;43754;56.992;24.292;2022-11-09T10:26:16;12.82;;;6.45;;
57947;SDS011;43754;56.992;24.292;2022-11-09T10:28:51;14.90;;;7.70;;
57947;SDS011;43754;56.992;24.292;2022-11-09T10:31:46;14.20;;;7.55;;
57947;SDS011;43754;56.992;24.292;2022-11-09T10:34:23;12.30;;;7.65;;
57947;SDS011;43754;56.992;24.292;2022-11-09T10:37:00;13.48;;;7.53;;
57947;SDS011;43754;56.992;24.292;2022-11-09T10:39:41;17.00;;;7.70;;
57947;SDS011;43754;56.992;24.292;2022-11-09T10:42:36;14.63;;;7.75;;
57947;SDS011;43754;56.992;24.292;2022-11-09T10:45:28;10.13;;;7.05;;
57947;SDS011;43754;56.992;24.292;2022-11-09T10:48:28;14.43;;;7.78;;
57947;SDS011;43754;56.992;24.292;2022-11-09T10:51:31;16.40;;;8.40;;
57947;SDS011;43754;56.992;24.292;2022-11-09T10:54:28;17.35;;;8.85;;
57947;SDS011;43754;56.992;24.292;2022-11-09T10:57:21;15.55;;;8.15;;
57947;SDS011;43754;56.992;24.292;2022-11-09T11:00:13;13.80;;;7.50;;
57947;SDS011;43754;56.992;24.292;2022-11-09T11:03:09;14.45;;;7.38;;
57947;SDS011;43754;56.992;24.292;2022-11-09T11:06:05;13.35;;;7.75;;
57947;SDS011;43754;56.992;24.292;2022-11-09T11:12:04;15.70;;;7.93;;
57947;SDS011;43754;56.992;24.292;2022-11-09T11:15:11;7.43;;;5.13;;
57947;SDS011;43754;56.992;24.292;2022-11-09T11:18:12;13.13;;;7.55;;
57947;SDS011;43754;56.992;24.292;2022-11-09T11:21:10;13.05;;;7.00;;
57947;SDS011;43754;56.992;24.292;2022-11-09T11:24:12;19.83;;;8.13;;
57947;SDS011;43754;56.992;24.292;2022-11-09T11:27:07;12.95;;;7.22;;
57947;SDS011;43754;56.992;24.292;2022-11-09T11:30:04;15.40;;;8.35;;
57947;SDS011;43754;56.992;24.292;2022-11-09T11:33:00;14.85;;;7.32;;
57947;SDS011;43754;56.992;24.292;2022-11-09T11:35:55;12.35;;;7.80;;
57947;SDS011;43754;56.992;24.292;2022-11-09T11:38:54;14.63;;;8.13;;
57947;SDS011;43754;56.992;24.292;2022-11-09T11:41:55;17.23;;;8.20;;
57947;SDS011;43754;56.992;24.292;2022-11-09T11:45:08;15.25;;;7.57;;
57947;SDS011;43754;56.992;24.292;2022-11-09T11:48:36;18.40;;;8.40;;
57947;SDS011;43754;56.992;24.292;2022-11-09T11:51:46;11.55;;;8.15;;
57947;SDS011;43754;56.992;24.292;2022-11-09T11:54:49;14.65;;;7.45;;
57947;SDS011;43754;56.992;24.292;2022-11-09T11:58:01;12.23;;;7.40;;
57947;SDS011;43754;56.992;24.292;2022-11-09T12:01:11;15.52;;;8.10;;
57947;SDS011;43754;56.992;24.292;2022-11-09T12:04:16;15.63;;;9.52;;
57947;SDS011;43754;56.992;24.292;2022-11-09T12:07:24;15.93;;;9.82;;
57947;SDS011;43754;56.992;24.292;2022-11-09T12:10:26;14.57;;;8.30;;
57947;SDS011;43754;56.992;24.292;2022-11-09T12:13:35;13.38;;;7.60;;
57947;SDS011;43754;56.992;24.292;2022-11-09T12:16:40;13.18;;;8.43;;
57947;SDS011;43754;56.992;24.292;2022-11-09T12:19:44;16.45;;;8.25;;
57947;SDS011;43754;56.992;24.292;2022-11-09T12:22:50;16.45;;;8.00;;
57947;SDS011;43754;56.992;24.292;2022-11-09T12:25:51;13.40;;;7.78;;
57947;SDS011;43754;56.992;24.292;2022-11-09T12:28:56;23.35;;;8.75;;
57947;SDS011;43754;56.992;24.292;2022-11-09T12:32:00;13.98;;;8.35;;
57947;SDS011;43754;56.992;24.292;2022-11-09T12:35:14;13.75;;;7.50;;
57947;SDS011;43754;56.992;24.292;2022-11-09T12:38:11;14.40;;;9.15;;
57947;SDS011;43754;56.992;24.292;2022-11-09T12:41:07;16.83;;;8.20;;
57947;SDS011;43754;56.992;24.292;2022-11-09T12:44:05;11.85;;;7.55;;
57947;SDS011;43754;56.992;24.292;2022-11-09T12:47:06;13.88;;;9.18;;
57947;SDS011;43754;56.992;24.292;2022-11-09T12:50:04;12.75;;;7.72;;
57947;SDS011;43754;56.992;24.292;2022-11-09T12:52:55;13.68;;;8.05;;
57947;SDS011;43754;56.992;24.292;2022-11-09T12:58:38;16.27;;;8.70;;
57947;SDS011;43754;56.992;24.292;2022-11-09T13:04:37;15.38;;;9.63;;
57947;SDS011;43754;56.992;24.292;2022-11-09T13:10:39;20.10;;;12.98;;
57947;SDS011;43754;56.992;24.292;2022-11-09T13:13:29;22.10;;;10.88;;
57947;SDS011;43754;56.992;24.292;2022-11-09T13:16:30;21.42;;;11.50;;
57947;SDS011;43754;56.992;24.292;2022-11-09T13:22:59;17.17;;;10.52;;
57947;SDS011;43754;56.992;24.292;2022-11-09T13:25:51;15.77;;;9.20;;
57947;SDS011;43754;56.992;24.292;2022-11-09T13:28:42;14.20;;;10.23;;
57947;SDS011;43754;56.992;24.292;2022-11-09T13:31:57;21.02;;;11.43;;
57947;SDS011;43754;56.992;24.292;2022-11-09T13:34:52;16.30;;;9.95;;
57947;SDS011;43754;56.992;24.292;2022-11-09T13:37:51;17.55;;;10.85;;
57947;SDS011;43754;56.992;24.292;2022-11-09T13:40:45;18.00;;;11.57;;
57947;SDS011;43754;56.992;24.292;2022-11-09T13:43:37;17.35;;;11.18;;
57947;SDS011;43754;56.992;24.292;2022-11-09T13:46:30;19.33;;;11.60;;
57947;SDS011;43754;56.992;24.292;2022-11-09T13:49:38;18.02;;;12.13;;
57947;SDS011;43754;56.992;24.292;2022-11-09T13:55:48;17.83;;;10.15;;
57947;SDS011;43754;56.992;24.292;2022-11-09T13:58:39;19.60;;;12.57;;
57947;SDS011;43754;56.992;24.292;2022-11-09T14:01:31;16.65;;;11.00;;
57947;SDS011;43754;56.992;24.292;2022-11-09T14:04:28;18.52;;;11.85;;
57947;SDS011;43754;56.992;24.292;2022-11-09T14:07:21;22.40;;;11.98;;
57947;SDS011;43754;56.992;24.292;2022-11-09T14:10:15;16.90;;;11.73;;
57947;SDS011;43754;56.992;24.292;2022-11-09T14:13:22;19.65;;;12.77;;
57947;SDS011;43754;56.992;24.292;2022-11-09T14:16:39;23.48;;;12.63;;
57947;SDS011;43754;56.992;24.292;2022-11-09T14:19:37;20.33;;;11.93;;
57947;SDS011;43754;56.992;24.292;2022-11-09T14:22:37;20.95;;;11.70;;
57947;SDS011;43754;56.992;24.292;2022-11-09T14:25:34;22.10;;;15.13;;
57947;SDS011;43754;56.992;24.292;2022-11-09T14:28:26;18.70;;;13.23;;
57947;SDS011;43754;56.992;24.292;2022-11-09T14:31:24;18.60;;;11.63;;
57947;SDS011;43754;56.992;24.292;2022-11-09T14:34:16;22.00;;;15.10;;
57947;SDS011;43754;56.992;24.292;2022-11-09T14:37:07;31.83;;;19.80;;
57947;SDS011;43754;56.992;24.292;2022-11-09T14:40:00;23.45;;;15.68;;
57947;SDS011;43754;56.992;24.292;2022-11-09T14:45:46;24.85;;;14.32;;
57947;SDS011;43754;56.992;24.292;2022-11-09T14:48:38;24.17;;;14.18;;
57947;SDS011;43754;56.992;24.292;2022-11-09T14:51:36;24.27;;;15.35;;
57947;SDS011;43754;56.992;24.292;2022-11-09T14:54:28;20.48;;;14.40;;
57947;SDS011;43754;56.992;24.292;2022-11-09T14:57:19;21.75;;;14.95;;
57947;SDS011;43754;56.992;24.292;2022-11-09T15:00:24;25.98;;;14.00;;
57947;SDS011;43754;56.992;24.292;2022-11-09T15:03:24;28.65;;;17.38;;
57947;SDS011;43754;56.992;24.292;2022-11-09T15:06:16;24.95;;;14.73;;
57947;SDS011;43754;56.992;24.292;2022-11-09T15:09:07;22.67;;;13.63;;
57947;SDS011;43754;56.992;24.292;2022-11-09T15:12:05;23.98;;;12.73;;
57947;SDS011;43754;56.992;24.292;2022-11-09T15:15:04;20.00;;;12.93;;
57947;SDS011;43754;56.992;24.292;2022-11-09T15:17:57;23.25;;;15.55;;
57947;SDS011;43754;56.992;24.292;2022-11-09T15:20:48;24.17;;;15.40;;
57947;SDS011;43754;56.992;24.292;2022-11-09T15:24:04;31.10;;;19.77;;
57947;SDS011;43754;56.992;24.292;2022-11-09T15:30:31;29.63;;;18.88;;
57947;SDS011;43754;56.992;24.292;2022-11-09T15:33:26;31.55;;;19.73;;
57947;SDS011;43754;56.992;24.292;2022-11-09T15:36:19;34.80;;;20.40;;
57947;SDS011;43754;56.992;24.292;2022-11-09T15:39:14;28.35;;;16.60;;
57947;SDS011;43754;56.992;24.292;2022-11-09T15:42:07;27.23;;;17.00;;
57947;SDS011;43754;56.992;24.292;2022-11-09T15:44:59;32.92;;;20.20;;
57947;SDS011;43754;56.992;24.292;2022-11-09T15:47:51;33.38;;;20.92;;
57947;SDS011;43754;56.992;24.292;2022-11-09T15:50:44;27.23;;;19.30;;
57947;SDS011;43754;56.992;24.292;2022-11-09T15:53:35;32.50;;;19.40;;
57947;SDS011;43754;56.992;24.292;2022-11-09T15:56:25;27.35;;;18.40;;
57947;SDS011;43754;56.992;24.292;2022-11-09T15:59:17;27.63;;;17.55;;
57947;SDS011;43754;56.992;24.292;2022-11-09T16:02:10;31.30;;;17.73;;
57947;SDS011;43754;56.992;24.292;2022-11-09T16:05:00;23.05;;;17.13;;